Terminal Aerodrome Forecast
Issued by NWS Memphis, TN

Home | Current Version | Previous Version | Text Only | Print | Product List | Glossary On
Versions: 1 2 3 4 5 6 7 8 9 10 11 12 13 14 15 16 17 18 19 20
707
FTUS44 KMEG 250530
TAFMKL
TAF
KMKL 250530Z 2506/2606 32004KT P6SM FEW100
      TEMPO 2509/2512 3SM BR BCFG
     FM251500 29007KT P6SM BKN100 OVC250
     FM252200 32007KT P6SM -RA SCT035 OVC060
     FM260200 VRB03KT 5SM RA BKN025 OVC035=

USA.gov is the U.S. government's official web portal to all federal, state and local government web resources and services.